Pagrindinis puslapis
METAR-TAF:

METAR-TAF

Oro uostai :

Kos, Graikija

platuma: 36-47N, ilguma: 027-04E, Aukštis: 129 m

Dabartinis oras

Ataskaita buvo paskelbta 22 minutes, ne 23:50 UTC
Vėjas 5 kt iš Šiaurės Vakarų
Temperatūra 20°C
Drėgmė 88%
Slėgis 1015 hPa
Matomumas 10 km arba daugiau
nėra debesų žemiau 1500 m ir nėra kamuolinių lietaus debesų

METAR: LGKO 182350Z 31005KT CAVOK 20/18 Q1015

Laikas: 03:12 (00:12 UTC)

Prognozė

Ataskaita buvo paskelbta 1 valandą ir 12 minutes, ne 23:00 UTC
Prognozė galioja nuo 19 metu 00 UTC su 19 metu 24 UTC
Vėjas 5 kt nuo kintamojo kryptimis
Matomumas 10 km arba daugiau
Mažai debesys ne aukštis 1800 ft
Tapsmas
nuo 19 metu 10 UTC su 19 metu 12 UTC
Vėjas 10 kt iš Šiaurės Vakarų

TAF: LGKO 182300Z 1900/1924 VRB05KT 9999 FEW018 BECMG 1910/1912 32010KT

Orai ataskaitas ir orų prognozės (METAR, TAF).

turimą stotys yra geltonos ir raudonos taškus žemėlapyje.

Perkelti pele per norėdami pamatyti stoties vardą.

Tada spustelėkite, norėdami matyti oro stebėjimo ir prognozės.

Norėdami pakeisti žemėlapį: spustelėkite ant žalios mygtukų su juodo kryžiaus žemyn,; žalią mygtuką su brūkšneliu, jei norite nutolinti; arba žalių rodyklių gretimoms žemėlapius.


METAR-TAF: